Time;durP1;ratioP1;P1;durP2;ratioP2;P2;SDS_P1;SDS_P2;PMS_P1;PMS_P2;Temp;Humidity;BMP_temperature;BMP_pressure;BME280_temperature;BME280_humidity;BME280_pressure;Samples;Min_cycle;Max_cycle;Signal;HPM_P1;HPM_P2
2023/06/01 00:00:40;;;;;;;6.57;5.93;;;20.70;99.30;;;;;;5029990;28;20050;-76
2023/06/01 00:03:06;;;;;;;6.45;5.68;;;20.70;99.20;;;;;;5030671;28;20030;-77
2023/06/01 00:05:32;;;;;;;6.55;5.90;;;20.60;99.50;;;;;;5029591;28;20049;-76
2023/06/01 00:07:59;;;;;;;11.00;6.13;;;20.50;99.70;;;;;;5030616;28;20033;-76
2023/06/01 00:10:25;;;;;;;8.50;6.55;;;20.50;99.90;;;;;;5031564;28;20045;-76
2023/06/01 00:12:51;;;;;;;7.68;7.03;;;20.40;99.90;;;;;;5030725;28;20356;-77
2023/06/01 00:15:17;;;;;;;9.05;7.05;;;20.40;99.90;;;;;;5029681;28;20045;-77
2023/06/01 00:17:43;;;;;;;8.10;6.57;;;20.40;99.90;;;;;;5014921;28;20605;-77
2023/06/01 00:20:10;;;;;;;7.15;6.55;;;20.30;99.90;;;;;;5033729;28;20041;-78
2023/06/01 00:22:38;;;;;;;7.80;6.18;;;20.40;99.90;;;;;;4997707;28;20049;-76
2023/06/01 00:25:08;;;;;;;10.55;6.50;;;20.40;99.90;;;;;;5015427;28;20390;-77
2023/06/01 00:27:34;;;;;;;9.65;6.60;;;20.40;99.90;;;;;;5034276;28;20033;-76
2023/06/01 00:30:01;;;;;;;7.50;5.70;;;20.40;99.90;;;;;;5034059;28;20052;-77
2023/06/01 00:32:27;;;;;;;7.43;6.70;;;20.40;99.90;;;;;;5032874;28;20417;-76
2023/06/01 00:34:53;;;;;;;9.35;6.97;;;20.40;99.90;;;;;;5033930;28;20025;-77
2023/06/01 00:37:19;;;;;;;8.52;6.68;;;20.20;99.90;;;;;;5017423;28;20382;-77
2023/06/01 00:39:45;;;;;;;10.98;6.47;;;20.20;99.90;;;;;;5033826;28;20034;-77
2023/06/01 00:42:11;;;;;;;7.78;6.75;;;20.20;99.90;;;;;;5033795;28;20119;-77
2023/06/01 00:44:37;;;;;;;6.65;5.97;;;20.20;99.90;;;;;;5033778;28;20033;-77
2023/06/01 00:47:03;;;;;;;8.85;6.20;;;20.20;99.90;;;;;;5035999;28;20379;-77
2023/06/01 00:49:29;;;;;;;6.78;6.05;;;20.20;99.90;;;;;;5053245;28;20385;-76
2023/06/01 00:51:56;;;;;;;8.32;5.78;;;20.10;99.90;;;;;;5038633;28;20036;-77
2023/06/01 00:54:22;;;;;;;7.63;5.75;;;20.10;99.90;;;;;;5033734;28;20406;-77
2023/06/01 00:56:48;;;;;;;8.45;6.32;;;20.10;99.90;;;;;;5033351;28;20036;-77
2023/06/01 00:59:14;;;;;;;6.60;5.80;;;20.10;99.90;;;;;;5033501;28;20036;-77
2023/06/01 01:01:43;;;;;;;10.45;6.03;;;20.10;99.90;;;;;;5032659;28;20033;-76
2023/06/01 01:04:10;;;;;;;8.25;5.97;;;20.10;99.90;;;;;;5033329;28;20029;-76
2023/06/01 01:06:48;;;;;;;8.07;6.00;;;20.00;99.90;;;;;;5016528;28;20049;-77
2023/06/01 01:09:28;;;;;;;9.00;5.82;;;19.90;99.90;;;;;;5033381;28;20029;-77
2023/06/01 01:12:19;;;;;;;7.30;5.68;;;20.00;99.90;;;;;;5033049;28;20048;-76
2023/06/01 01:14:52;;;;;;;9.77;6.13;;;20.00;99.90;;;;;;5033062;28;20030;-77
2023/06/01 01:17:21;;;;;;;7.85;5.75;;;19.90;99.90;;;;;;5016097;28;20045;-76
2023/06/01 01:20:12;;;;;;;6.95;5.68;;;20.00;99.90;;;;;;5033158;28;20025;-76
2023/06/01 01:22:38;;;;;;;;;;;20.00;99.90;;;;;;5034833;28;20044;-77
2023/06/01 01:25:10;;;;;;;7.78;5.90;;;20.00;99.90;;;;;;5034314;28;19913;-76
2023/06/01 01:27:39;;;;;;;6.15;5.63;;;20.00;99.90;;;;;;5034129;28;20056;-76
2023/06/01 01:30:06;;;;;;;9.48;5.40;;;19.90;99.90;;;;;;5033022;28;20036;-77
2023/06/01 01:32:32;;;;;;;7.15;5.35;;;19.80;99.90;;;;;;5032470;28;20052;-77
2023/06/01 01:34:59;;;;;;;8.70;5.90;;;19.70;99.90;;;;;;5016486;28;20470;-76
2023/06/01 01:37:25;;;;;;;6.47;5.72;;;19.50;99.90;;;;;;5016278;28;20041;-77
2023/06/01 01:39:51;;;;;;;7.97;5.35;;;19.50;99.90;;;;;;5032878;28;20034;-77
2023/06/01 01:42:17;;;;;;;7.15;5.82;;;19.50;99.90;;;;;;5033684;28;20036;-76
2023/06/01 01:44:44;;;;;;;7.30;5.63;;;19.50;99.90;;;;;;5033917;28;20045;-77
2023/06/01 01:47:51;;;;;;;8.18;5.57;;;19.50;99.90;;;;;;5035726;28;20060;-77
2023/06/01 01:50:18;;;;;;;8.93;5.47;;;19.40;99.90;;;;;;5010179;28;20034;-76
2023/06/01 01:52:45;;;;;;;11.63;4.93;;;19.60;99.90;;;;;;4976121;28;20045;-77
2023/06/01 01:55:11;;;;;;;9.18;5.18;;;19.60;99.90;;;;;;4975718;28;20495;-77
2023/06/01 01:57:37;;;;;;;8.15;5.57;;;19.50;99.90;;;;;;4975981;28;20039;-76
2023/06/01 02:00:05;;;;;;;6.95;5.45;;;19.30;99.90;;;;;;4974972;28;20034;-77
2023/06/01 02:02:31;;;;;;;7.40;5.53;;;19.30;99.90;;;;;;4972428;28;20042;-76
2023/06/01 02:04:57;;;;;;;5.97;5.47;;;19.10;99.90;;;;;;4985118;28;20054;-76
2023/06/01 02:07:24;;;;;;;7.68;6.00;;;19.10;99.90;;;;;;4983366;28;20582;-77
2023/06/01 02:09:50;;;;;;;7.65;5.85;;;19.10;99.90;;;;;;4989433;28;20407;-77
2023/06/01 02:12:16;;;;;;;6.10;5.32;;;19.00;99.90;;;;;;4989815;28;20035;-76
2023/06/01 02:14:42;;;;;;;6.32;4.82;;;19.00;99.90;;;;;;4990200;28;20034;-77
2023/06/01 02:17:08;;;;;;;8.77;5.78;;;19.00;99.90;;;;;;4989620;28;20039;-77
2023/06/01 02:19:34;;;;;;;8.90;6.25;;;18.90;99.90;;;;;;4990325;28;20034;-77
2023/06/01 02:22:00;;;;;;;7.85;5.22;;;18.90;99.90;;;;;;4989920;28;20379;-76
2023/06/01 02:24:26;;;;;;;10.40;5.63;;;18.80;99.90;;;;;;5013491;28;20041;-76
2023/06/01 02:26:53;;;;;;;6.85;5.40;;;18.80;99.90;;;;;;5030300;28;20052;-76
2023/06/01 02:29:22;;;;;;;8.23;5.72;;;18.70;99.90;;;;;;5030196;28;20025;-76
2023/06/01 02:31:52;;;;;;;8.57;5.53;;;18.60;99.90;;;;;;5030764;28;20034;-77
2023/06/01 02:34:18;;;;;;;8.00;5.47;;;18.60;99.90;;;;;;5030813;28;20481;-77
2023/06/01 02:36:45;;;;;;;6.25;5.60;;;18.60;99.90;;;;;;5030805;28;20465;-77
2023/06/01 02:39:11;;;;;;;5.80;5.20;;;18.60;99.90;;;;;;5031560;28;20382;-77
2023/06/01 02:41:37;;;;;;;6.75;5.50;;;18.50;99.90;;;;;;5032418;28;20034;-76
2023/06/01 02:44:03;;;;;;;8.90;5.25;;;18.50;99.90;;;;;;5032565;28;20030;-77
2023/06/01 02:46:29;;;;;;;8.32;6.90;;;18.50;99.90;;;;;;5030434;28;20064;-76
2023/06/01 02:48:55;;;;;;;7.90;6.68;;;18.50;99.90;;;;;;5050167;28;20025;-76
2023/06/01 02:51:21;;;;;;;7.97;6.32;;;18.50;99.90;;;;;;5042086;28;20037;-76
2023/06/01 02:53:48;;;;;;;9.95;6.78;;;18.50;99.90;;;;;;5032583;28;20489;-76
2023/06/01 02:56:14;;;;;;;9.95;6.63;;;18.50;99.90;;;;;;5031321;28;20040;-77
2023/06/01 02:58:41;;;;;;;7.78;6.53;;;18.50;99.90;;;;;;5030947;28;20029;-77
2023/06/01 03:01:11;;;;;;;7.85;6.43;;;18.50;99.90;;;;;;5030505;28;20037;-77
2023/06/01 03:03:38;;;;;;;7.43;6.13;;;18.50;99.90;;;;;;5031338;28;20477;-76
2023/06/01 03:06:05;;;;;;;6.85;6.05;;;18.40;99.90;;;;;;5030978;28;20486;-77
2023/06/01 03:08:32;;;;;;;8.90;6.93;;;18.30;99.90;;;;;;5032468;28;20486;-76
2023/06/01 03:10:58;;;;;;;9.43;7.07;;;18.40;99.90;;;;;;5030892;28;20038;-76
2023/06/01 03:13:24;;;;;;;7.60;6.43;;;18.30;99.90;;;;;;5032051;28;20028;-77
2023/06/01 03:15:50;;;;;;;9.90;6.25;;;18.40;99.90;;;;;;5030023;28;20048;-77
2023/06/01 03:18:16;;;;;;;9.18;6.90;;;18.40;99.90;;;;;;5032344;28;20026;-76
2023/06/01 03:20:42;;;;;;;7.60;5.80;;;18.30;99.90;;;;;;5014330;28;20052;-77
2023/06/01 03:23:08;;;;;;;9.27;6.68;;;18.20;99.90;;;;;;5014422;28;20422;-77
2023/06/01 03:25:34;;;;;;;9.32;6.40;;;18.30;99.90;;;;;;5031919;28;20096;-76
2023/06/01 03:28:01;;;;;;;6.93;6.15;;;18.30;99.90;;;;;;5031902;28;20498;-76
2023/06/01 03:30:27;;;;;;;8.10;6.97;;;18.30;99.90;;;;;;5031368;28;20018;-77
2023/06/01 03:32:53;;;;;;;6.90;6.15;;;18.30;99.90;;;;;;5031143;28;20033;-76
2023/06/01 03:35:19;;;;;;;9.38;6.57;;;18.30;99.90;;;;;;5031753;28;20032;-77
2023/06/01 03:37:46;;;;;;;7.72;6.50;;;18.30;99.90;;;;;;5030777;28;20038;-77
2023/06/01 03:40:12;;;;;;;9.25;7.57;;;18.50;99.90;;;;;;5030091;28;20100;-77
2023/06/01 03:42:42;;;;;;;7.15;6.32;;;18.40;99.90;;;;;;5031818;28;20036;-77
2023/06/01 03:45:09;;;;;;;10.80;7.20;;;18.40;99.90;;;;;;5063342;28;20037;-76
2023/06/01 03:47:35;;;;;;;14.07;8.57;;;18.50;99.90;;;;;;5025965;28;20033;-76
2023/06/01 03:50:02;;;;;;;11.65;7.40;;;18.50;99.90;;;;;;5050355;28;20041;-77
2023/06/01 03:52:28;;;;;;;10.55;7.70;;;18.50;99.90;;;;;;5050899;28;20032;-77
2023/06/01 03:54:58;;;;;;;11.43;7.90;;;18.40;99.90;;;;;;5054975;28;20025;-76
2023/06/01 03:57:24;;;;;;;12.38;7.60;;;18.30;99.90;;;;;;5038978;28;20680;-76
2023/06/01 03:59:51;;;;;;;10.52;8.15;;;18.10;99.90;;;;;;5034599;28;20017;-77
2023/06/01 04:02:18;;;;;;;9.20;8.10;;;18.10;99.90;;;;;;5033827;28;20041;-76
2023/06/01 04:04:45;;;;;;;12.00;7.97;;;18.00;99.90;;;;;;5034741;28;20036;-77
2023/06/01 04:07:14;;;;;;;9.65;7.38;;;18.00;99.90;;;;;;5034393;28;20033;-76
2023/06/01 04:09:41;;;;;;;11.57;7.05;;;18.00;99.90;;;;;;5034586;28;20025;-76
2023/06/01 04:12:08;;;;;;;9.95;7.10;;;18.10;99.90;;;;;;5033272;28;20426;-77
2023/06/01 04:14:35;;;;;;;10.90;6.97;;;18.10;99.90;;;;;;5034265;28;20021;-77
2023/06/01 04:17:01;;;;;;;10.52;7.28;;;18.20;99.90;;;;;;5034133;28;20408;-76
2023/06/01 04:19:27;;;;;;;9.25;7.72;;;18.30;99.90;;;;;;5033913;28;20045;-77
2023/06/01 04:21:53;;;;;;;9.38;8.30;;;18.30;99.90;;;;;;5034044;28;20033;-77
2023/06/01 04:24:20;;;;;;;10.40;7.90;;;18.40;99.90;;;;;;5034349;28;20379;-77
2023/06/01 04:26:46;;;;;;;10.85;7.97;;;18.40;99.90;;;;;;5033497;28;20052;-77
2023/06/01 04:29:12;;;;;;;11.52;7.70;;;18.50;99.90;;;;;;5035282;28;20382;-77
2023/06/01 04:31:39;;;;;;;14.70;8.60;;;18.50;99.90;;;;;;5033197;28;20050;-77
2023/06/01 04:34:05;;;;;;;10.40;8.43;;;18.60;99.90;;;;;;5034107;28;20025;-77
2023/06/01 04:36:38;;;;;;;14.82;7.85;;;18.50;99.90;;;;;;5033792;28;20030;-77
2023/06/01 04:39:08;;;;;;;10.02;8.18;;;18.30;99.90;;;;;;5033900;28;20017;-78
2023/06/01 04:41:35;;;;;;;11.25;7.50;;;18.10;99.90;;;;;;5034582;28;20025;-77
2023/06/01 04:44:05;;;;;;;11.13;7.63;;;17.90;99.90;;;;;;5033889;28;20029;-77
2023/06/01 04:46:31;;;;;;;11.80;8.38;;;17.90;99.90;;;;;;5033101;28;20053;-77
2023/06/01 04:48:59;;;;;;;11.02;7.72;;;18.00;99.90;;;;;;5052612;28;20036;-77
2023/06/01 04:51:26;;;;;;;8.27;7.47;;;17.90;99.90;;;;;;5042851;28;20044;-77
2023/06/01 04:53:53;;;;;;;11.93;7.00;;;17.80;99.90;;;;;;5033943;28;20033;-77
2023/06/01 04:56:24;;;;;;;12.25;6.65;;;17.80;99.90;;;;;;5016507;28;20045;-76
2023/06/01 04:58:51;;;;;;;15.15;7.30;;;17.80;99.90;;;;;;5033822;28;20022;-77
2023/06/01 05:01:17;;;;;;;13.35;7.40;;;17.90;99.90;;;;;;5032932;28;20402;-77
2023/06/01 05:03:44;;;;;;;11.07;7.28;;;18.00;99.90;;;;;;5032724;28;20026;-77
2023/06/01 05:06:11;;;;;;;12.98;7.57;;;18.10;99.90;;;;;;5032755;28;20041;-77
2023/06/01 05:08:40;;;;;;;9.15;6.55;;;18.10;99.90;;;;;;5016816;28;20033;-77
2023/06/01 05:11:07;;;;;;;10.68;7.53;;;18.20;99.90;;;;;;5034468;28;20046;-77
2023/06/01 05:13:37;;;;;;;11.23;7.55;;;18.20;99.90;;;;;;5033423;28;20028;-77
2023/06/01 05:16:04;;;;;;;11.80;7.25;;;18.20;99.90;;;;;;5003607;28;20533;-77
2023/06/01 05:18:30;;;;;;;10.65;7.78;;;18.30;99.90;;;;;;5033259;28;20486;-77
2023/06/01 05:20:56;;;;;;;12.25;8.85;;;18.40;99.90;;;;;;5033055;28;20038;-77
2023/06/01 05:23:23;;;;;;;11.70;8.13;;;18.50;99.90;;;;;;5032789;28;20470;-77
2023/06/01 05:25:50;;;;;;;16.67;7.80;;;18.50;99.90;;;;;;5032785;28;20045;-77
2023/06/01 05:28:16;;;;;;;10.75;8.05;;;18.60;99.90;;;;;;5034082;28;20036;-77
2023/06/01 05:30:42;;;;;;;11.60;8.30;;;18.70;99.90;;;;;;5032390;28;20391;-77
2023/06/01 05:33:08;;;;;;;13.10;7.97;;;18.70;99.90;;;;;;5033960;28;20382;-77
2023/06/01 05:35:35;;;;;;;15.02;7.78;;;18.80;99.90;;;;;;5016432;28;20029;-77
2023/06/01 05:38:01;;;;;;;13.52;7.28;;;18.80;99.90;;;;;;5049123;28;20034;-77
2023/06/01 05:40:27;;;;;;;13.27;7.53;;;18.90;99.90;;;;;;5048829;28;20022;-78
2023/06/01 05:42:53;;;;;;;12.52;7.85;;;18.90;99.90;;;;;;5066143;28;20032;-78
2023/06/01 05:45:20;;;;;;;13.00;8.15;;;18.90;99.90;;;;;;5033130;28;20060;-77
2023/06/01 05:47:46;;;;;;;14.93;7.50;;;19.10;99.90;;;;;;5041243;28;20056;-78
2023/06/01 05:50:12;;;;;;;10.35;6.85;;;19.20;99.90;;;;;;5051960;28;20029;-77
2023/06/01 05:52:39;;;;;;;10.57;7.03;;;19.00;99.90;;;;;;5033448;28;20025;-76
2023/06/01 05:55:05;;;;;;;11.27;8.05;;;19.00;99.90;;;;;;5015951;28;20044;-77
2023/06/01 05:57:31;;;;;;;16.33;8.57;;;18.90;99.90;;;;;;5032101;28;20052;-77
2023/06/01 05:59:57;;;;;;;13.65;7.80;;;19.00;99.90;;;;;;5032470;28;20029;-77
2023/06/01 06:02:23;;;;;;;11.77;7.32;;;19.10;99.90;;;;;;5031094;28;20033;-76
2023/06/01 06:04:50;;;;;;;14.30;7.82;;;19.20;99.90;;;;;;5032469;28;20032;-77
2023/06/01 06:07:16;;;;;;;13.02;7.90;;;19.20;99.90;;;;;;5032848;28;20045;-77
2023/06/01 06:09:42;;;;;;;11.80;8.43;;;19.20;99.90;;;;;;5032335;28;20029;-77
2023/06/01 06:12:08;;;;;;;14.13;8.00;;;19.30;99.90;;;;;;5032996;28;20033;-77
2023/06/01 06:14:34;;;;;;;13.45;8.25;;;19.20;99.90;;;;;;5033219;28;20029;-76
2023/06/01 06:17:00;;;;;;;14.02;8.48;;;19.40;99.90;;;;;;5047509;28;20033;-76
2023/06/01 06:19:26;;;;;;;12.07;7.55;;;19.60;99.90;;;;;;5032158;28;20033;-77
2023/06/01 06:21:52;;;;;;;12.80;8.35;;;19.60;99.90;;;;;;5031498;28;20040;-77
2023/06/01 06:24:18;;;;;;;17.45;8.55;;;19.90;99.90;;;;;;5032097;28;20036;-77
2023/06/01 06:26:44;;;;;;;12.18;8.45;;;20.00;99.90;;;;;;5031697;28;20060;-77
2023/06/01 06:29:11;;;;;;;14.20;7.82;;;20.20;99.90;;;;;;5033011;28;20029;-77
2023/06/01 06:31:37;;;;;;;11.00;7.57;;;20.30;99.90;;;;;;5032265;28;20037;-77
2023/06/01 06:34:03;;;;;;;11.30;8.25;;;20.10;99.90;;;;;;5031812;28;20037;-77
2023/06/01 06:36:29;;;;;;;11.30;8.25;;;20.10;99.90;;;;;;5032257;28;20033;-77
2023/06/01 06:38:55;;;;;;;10.10;8.40;;;20.30;99.90;;;;;;5048142;28;20490;-76
2023/06/01 06:41:22;;;;;;;14.00;8.32;;;20.30;99.90;;;;;;5030830;28;20045;-78
2023/06/01 06:43:48;;;;;;;9.70;6.85;;;20.30;99.90;;;;;;5048140;28;20466;-78
2023/06/01 06:46:14;;;;;;;11.73;7.53;;;20.30;99.90;;;;;;5031919;28;20060;-76
2023/06/01 06:48:40;;;;;;;9.32;7.10;;;20.30;99.90;;;;;;5048077;28;20465;-77
2023/06/01 06:51:06;;;;;;;11.02;7.68;;;20.50;99.90;;;;;;5044305;28;20033;-77
2023/06/01 06:53:33;;;;;;;8.88;7.97;;;20.60;99.90;;;;;;5032724;28;20070;-77
2023/06/01 06:55:59;;;;;;;14.23;8.50;;;20.60;99.90;;;;;;5031292;28;20037;-77
2023/06/01 06:58:26;;;;;;;13.93;9.43;;;20.80;99.90;;;;;;5031432;28;20032;-77
2023/06/01 07:00:52;;;;;;;11.10;8.85;;;21.00;99.90;;;;;;5030886;28;20037;-77
2023/06/01 07:03:18;;;;;;;11.50;8.55;;;21.10;99.90;;;;;;5031462;28;20029;-77
2023/06/01 07:05:47;;;;;;;11.68;8.75;;;21.10;99.90;;;;;;5030693;28;20033;-78
2023/06/01 07:08:14;;;;;;;9.93;8.07;;;21.20;99.90;;;;;;5031293;28;20026;-77
2023/06/01 07:10:40;;;;;;;9.75;7.82;;;21.20;99.90;;;;;;5030849;28;20037;-77
2023/06/01 07:13:06;;;;;;;10.90;7.18;;;21.40;99.90;;;;;;5031197;28;20025;-77
2023/06/01 07:15:32;;;;;;;9.57;7.32;;;21.60;99.90;;;;;;5030373;28;20048;-77
2023/06/01 07:17:58;;;;;;;9.02;7.68;;;21.60;99.90;;;;;;5031036;28;20037;-77
2023/06/01 07:20:25;;;;;;;13.00;8.70;;;21.50;99.90;;;;;;5030617;28;20032;-76
2023/06/01 07:22:51;;;;;;;13.57;7.32;;;21.50;99.90;;;;;;5031236;28;20021;-77
2023/06/01 07:25:17;;;;;;;9.00;7.00;;;21.60;99.90;;;;;;5030580;28;20497;-78
2023/06/01 07:27:43;;;;;;;13.68;7.03;;;21.90;99.90;;;;;;5031293;28;20458;-77
2023/06/01 07:30:10;;;;;;;11.35;6.88;;;22.10;99.90;;;;;;5030596;28;20094;-76
2023/06/01 07:32:36;;;;;;;8.30;6.05;;;22.00;99.90;;;;;;5019835;28;20036;-77
2023/06/01 07:35:04;;;;;;;10.27;6.70;;;21.90;99.90;;;;;;5014462;28;20030;-77
2023/06/01 07:37:31;;;;;;;11.30;6.80;;;21.90;99.90;;;;;;5031806;28;20076;-77
2023/06/01 07:39:57;;;;;;;8.98;6.53;;;22.00;99.90;;;;;;5064085;28;20028;-77
2023/06/01 07:42:23;;;;;;;11.05;6.50;;;22.10;99.90;;;;;;5047120;28;20033;-77
2023/06/01 07:44:50;;;;;;;11.65;6.78;;;22.20;99.90;;;;;;5032102;28;20433;-77
2023/06/01 07:47:16;;;;;;;15.55;7.20;;;22.40;99.90;;;;;;5047983;28;20045;-77
2023/06/01 07:49:43;;;;;;;9.57;6.50;;;22.60;99.90;;;;;;5030476;28;20048;-77
2023/06/01 07:52:09;;;;;;;10.50;7.07;;;22.60;99.90;;;;;;5030519;28;20045;-77
2023/06/01 07:54:36;;;;;;;8.60;6.93;;;22.60;99.90;;;;;;5030998;28;20764;-78
2023/06/01 07:57:06;;;;;;;9.63;6.53;;;22.60;99.90;;;;;;5013929;28;20375;-77
2023/06/01 07:59:32;;;;;;;7.80;6.50;;;22.70;99.90;;;;;;5030277;28;20041;-77
2023/06/01 08:02:00;;;;;;;9.32;6.70;;;22.90;99.90;;;;;;5013388;28;20493;-77
2023/06/01 08:04:27;;;;;;;8.63;6.82;;;22.90;99.90;;;;;;5014078;28;20038;-77
2023/06/01 08:06:53;;;;;;;7.43;6.65;;;23.00;99.80;;;;;;5030442;28;20037;-78
2023/06/01 08:09:20;;;;;;;11.10;6.60;;;23.10;99.60;;;;;;5031776;28;20374;-78
2023/06/01 08:11:46;;;;;;;8.00;7.20;;;23.20;99.90;;;;;;5030518;28;20029;-78
2023/06/01 08:14:12;;;;;;;7.68;6.95;;;23.30;99.00;;;;;;5030429;28;20039;-78
2023/06/01 08:16:38;;;;;;;8.57;7.18;;;23.40;98.30;;;;;;5029334;28;20037;-77
2023/06/01 08:19:04;;;;;;;10.57;7.20;;;23.40;98.40;;;;;;5031333;28;20030;-77
2023/06/01 08:21:31;;;;;;;10.95;6.72;;;23.30;98.70;;;;;;5030319;28;20038;-77
2023/06/01 08:23:57;;;;;;;10.43;7.25;;;23.20;98.50;;;;;;5030451;28;20033;-76
2023/06/01 08:26:25;;;;;;;9.82;6.82;;;23.20;98.60;;;;;;5030035;28;20521;-77
2023/06/01 08:28:51;;;;;;;9.75;7.22;;;23.30;98.40;;;;;;5030416;28;20018;-77
2023/06/01 08:31:21;;;;;;;8.63;6.85;;;23.40;98.30;;;;;;5029520;28;20037;-76
2023/06/01 08:33:48;;;;;;;10.73;6.47;;;23.50;98.10;;;;;;5030004;28;20029;-76
2023/06/01 08:36:14;;;;;;;12.18;6.95;;;23.50;98.00;;;;;;5013685;28;20033;-76
2023/06/01 08:38:41;;;;;;;9.40;7.82;;;23.50;98.20;;;;;;5014426;28;20033;-76
2023/06/01 08:41:40;;;;;;;8.93;7.43;;;23.60;97.70;;;;;;5029182;28;20034;-78
2023/06/01 08:44:07;;;;;;;8.88;7.30;;;23.70;98.10;;;;;;5059890;28;20048;-77
2023/06/01 08:46:34;;;;;;;8.40;7.60;;;23.80;98.00;;;;;;5033505;28;20057;-78
2023/06/01 08:49:00;;;;;;;7.68;7.07;;;24.00;97.80;;;;;;5028183;28;20025;-77
2023/06/01 08:51:26;;;;;;;8.70;7.70;;;23.90;97.30;;;;;;5024615;28;20504;-76
2023/06/01 08:53:53;;;;;;;8.98;7.30;;;23.90;97.50;;;;;;5033533;28;20036;-76
2023/06/01 08:56:21;;;;;;;7.90;7.15;;;23.80;97.80;;;;;;5033404;28;20041;-77
2023/06/01 08:58:47;;;;;;;9.10;7.32;;;23.90;97.60;;;;;;5017287;28;20486;-77
2023/06/01 09:01:18;;;;;;;8.57;7.47;;;24.00;98.00;;;;;;5033658;28;20034;-77
2023/06/01 09:03:44;;;;;;;8.98;7.88;;;24.30;97.60;;;;;;5033711;28;20036;-77
2023/06/01 09:06:11;;;;;;;13.88;7.60;;;24.30;97.40;;;;;;5016520;28;20044;-77
2023/06/01 09:08:37;;;;;;;9.07;7.45;;;24.40;97.20;;;;;;5016944;28;20038;-76
2023/06/01 09:11:03;;;;;;;11.63;7.90;;;24.60;96.90;;;;;;5016576;28;20398;-76
2023/06/01 09:13:32;;;;;;;7.88;7.15;;;24.70;96.80;;;;;;5033304;28;20613;-76
2023/06/01 09:15:58;;;;;;;8.70;7.78;;;24.60;96.50;;;;;;5033228;28;20038;-76
2023/06/01 09:18:24;;;;;;;7.75;6.88;;;24.70;96.60;;;;;;5033127;28;20079;-76
2023/06/01 09:20:53;;;;;;;8.27;7.50;;;24.60;96.70;;;;;;5032699;28;20029;-76
2023/06/01 09:23:28;;;;;;;8.80;7.90;;;24.70;97.00;;;;;;5033325;28;20029;-76
2023/06/01 09:26:11;;;;;;;9.13;8.25;;;24.80;96.30;;;;;;5032784;28;20025;-76
2023/06/01 09:28:58;;;;;;;12.27;8.32;;;25.00;96.20;;;;;;5032950;28;20359;-76
2023/06/01 09:31:47;;;;;;;8.02;7.22;;;25.30;96.60;;;;;;5031963;28;20040;-76
2023/06/01 09:34:16;;;;;;;11.77;8.00;;;25.40;95.30;;;;;;4997102;28;20045;-76
2023/06/01 09:36:43;;;;;;;8.43;7.13;;;25.40;95.30;;;;;;5050804;28;20036;-77
2023/06/01 09:39:10;;;;;;;10.45;8.20;;;25.40;95.50;;;;;;5033941;28;20037;-76
2023/06/01 09:41:52;;;;;;;8.50;7.55;;;25.50;95.10;;;;;;5048805;28;20052;-76
2023/06/01 09:44:31;;;;;;;8.90;8.00;;;25.60;95.50;;;;;;5033597;28;20033;-76
2023/06/01 09:46:59;;;;;;;12.38;8.18;;;25.70;95.60;;;;;;5022115;28;20057;-76
2023/06/01 09:49:30;;;;;;;9.75;8.88;;;25.90;95.50;;;;;;5044721;28;20017;-77
2023/06/01 09:52:05;;;;;;;7.80;7.20;;;26.10;94.60;;;;;;5015806;28;20033;-76
2023/06/01 09:54:34;;;;;;;13.57;7.70;;;26.10;93.60;;;;;;5033691;28;20029;-77
2023/06/01 09:57:02;;;;;;;10.43;8.48;;;26.10;95.00;;;;;;5064920;28;20057;-76
2023/06/01 09:59:29;;;;;;;12.85;8.55;;;26.20;95.10;;;;;;5032079;28;20025;-76
2023/06/01 10:01:57;;;;;;;8.95;8.10;;;26.30;94.30;;;;;;5031695;28;20433;-76
2023/06/01 10:04:25;;;;;;;10.50;8.40;;;26.30;93.80;;;;;;5032236;28;20045;-76
2023/06/01 10:06:52;;;;;;;11.93;8.30;;;26.40;94.40;;;;;;5032052;28;20048;-76
2023/06/01 10:09:19;;;;;;;22.05;9.32;;;26.50;94.60;;;;;;5032544;28;20485;-76
2023/06/01 10:11:49;;;;;;;10.63;7.97;;;26.60;94.40;;;;;;5032071;28;20037;-76
2023/06/01 10:14:16;;;;;;;10.05;8.50;;;26.30;94.00;;;;;;5032070;28;20017;-74
2023/06/01 10:16:43;;;;;;;11.63;8.88;;;26.40;94.20;;;;;;5031443;28;20474;-75
2023/06/01 10:19:12;;;;;;;9.65;8.77;;;26.60;94.20;;;;;;5015470;28;20033;-76
2023/06/01 10:21:39;;;;;;;12.20;9.25;;;26.60;93.80;;;;;;5031987;28;20474;-76
2023/06/01 10:24:06;;;;;;;10.52;9.63;;;26.70;94.00;;;;;;5033486;28;20459;-77
2023/06/01 10:27:07;;;;;;;12.45;9.10;;;26.90;93.50;;;;;;5031838;28;20048;-76
2023/06/01 10:29:33;;;;;;;12.32;9.55;;;26.90;93.00;;;;;;5032868;28;20044;-76
2023/06/01 10:31:59;;;;;;;10.02;8.93;;;27.00;93.00;;;;;;5031057;28;20589;-76
2023/06/01 10:34:38;;;;;;;10.25;9.38;;;27.00;93.10;;;;;;5015681;28;20410;-77
2023/06/01 10:37:04;;;;;;;10.68;9.50;;;27.10;93.00;;;;;;5032645;28;20032;-76
2023/06/01 10:39:31;;;;;;;11.48;10.57;;;27.30;92.50;;;;;;5032907;28;20034;-77
2023/06/01 10:41:58;;;;;;;10.27;9.43;;;27.40;91.20;;;;;;5033224;28;20022;-76
2023/06/01 10:44:40;;;;;;;11.60;9.55;;;27.30;91.50;;;;;;5028113;28;20061;-76
2023/06/01 10:47:19;;;;;;;10.60;9.80;;;27.20;91.80;;;;;;5031328;28;20048;-76
2023/06/01 10:49:48;;;;;;;11.32;9.05;;;27.20;91.30;;;;;;5050930;28;20040;-76
2023/06/01 10:52:34;;;;;;;9.98;8.98;;;27.10;91.30;;;;;;5035358;28;20056;-76
2023/06/01 10:55:06;;;;;;;10.45;9.45;;;27.00;91.10;;;;;;5031579;28;20029;-76
2023/06/01 10:57:45;;;;;;;11.82;10.85;;;27.20;91.10;;;;;;5032003;28;20033;-76
2023/06/01 11:00:26;;;;;;;11.13;8.90;;;27.20;90.50;;;;;;5016019;28;20044;-77
2023/06/01 11:03:02;;;;;;;10.68;9.70;;;27.00;91.20;;;;;;5031359;28;20370;-76
2023/06/01 11:05:51;;;;;;;11.35;10.25;;;27.30;90.20;;;;;;5031200;28;20030;-76
2023/06/01 11:08:29;;;;;;;15.30;9.95;;;27.40;90.20;;;;;;5031371;28;20041;-75
2023/06/01 11:10:59;;;;;;;10.02;9.10;;;27.50;90.50;;;;;;5032179;28;20036;-75
2023/06/01 11:13:29;;;;;;;11.95;10.40;;;27.50;89.70;;;;;;5030990;28;20029;-76
2023/06/01 11:16:09;;;;;;;11.57;10.48;;;27.50;89.90;;;;;;5031676;28;20060;-77
2023/06/01 11:18:46;;;;;;;12.87;10.90;;;27.60;89.70;;;;;;5032216;28;20033;-76
2023/06/01 11:21:23;;;;;;;11.75;10.75;;;27.60;90.20;;;;;;5030611;28;20045;-76
2023/06/01 11:23:50;;;;;;;14.90;10.07;;;27.80;88.70;;;;;;5015187;28;20044;-76
2023/06/01 11:26:21;;;;;;;11.43;10.32;;;27.80;89.70;;;;;;5030409;28;20036;-76
2023/06/01 11:28:47;;;;;;;11.25;9.98;;;27.70;89.20;;;;;;5031255;28;20481;-76
2023/06/01 11:31:18;;;;;;;11.32;10.43;;;27.80;89.00;;;;;;5030462;28;20398;-76
2023/06/01 11:33:56;;;;;;;11.40;10.05;;;27.60;87.70;;;;;;5032063;28;20032;-76
2023/06/01 11:36:26;;;;;;;13.48;12.25;;;27.80;88.20;;;;;;5014649;28;20049;-75
2023/06/01 11:38:53;;;;;;;12.85;11.55;;;27.80;88.20;;;;;;5047243;28;20021;-76
2023/06/01 11:41:20;;;;;;;11.93;11.02;;;28.00;87.00;;;;;;5046851;28;20033;-76
2023/06/01 11:43:57;;;;;;;10.88;9.95;;;28.10;87.30;;;;;;5030738;28;20108;-75
2023/06/01 11:46:23;;;;;;;11.63;10.73;;;28.00;86.60;;;;;;5045089;28;20046;-76
2023/06/01 11:49:05;;;;;;;12.13;11.23;;;27.80;87.20;;;;;;5047393;28;20033;-76
2023/06/01 11:51:35;;;;;;;12.15;11.05;;;27.90;87.10;;;;;;5031804;28;20025;-76
2023/06/01 11:54:03;;;;;;;11.10;10.20;;;28.00;86.00;;;;;;5030802;28;20030;-76
2023/06/01 11:56:29;;;;;;;12.18;11.13;;;28.00;86.10;;;;;;5013832;28;20044;-76
2023/06/01 11:58:59;;;;;;;13.30;12.07;;;28.00;87.10;;;;;;5031935;28;20029;-76
2023/06/01 12:01:26;;;;;;;12.23;11.13;;;28.10;85.60;;;;;;5029969;28;20048;-76
2023/06/01 12:03:53;;;;;;;11.63;10.73;;;28.10;86.00;;;;;;5013660;28;20033;-76
2023/06/01 12:06:22;;;;;;;12.77;11.77;;;28.20;86.30;;;;;;5030462;28;20033;-75
2023/06/01 12:08:54;;;;;;;11.52;10.52;;;28.30;85.80;;;;;;5031051;28;20029;-75
2023/06/01 12:11:22;;;;;;;12.68;11.55;;;28.20;83.60;;;;;;5014246;28;20025;-76
2023/06/01 12:13:49;;;;;;;12.60;11.60;;;28.00;84.90;;;;;;5015198;28;20048;-76
2023/06/01 12:16:16;;;;;;;12.55;11.55;;;28.10;85.50;;;;;;5017283;28;20029;-76
2023/06/01 12:18:42;;;;;;;11.32;10.50;;;28.10;86.10;;;;;;5035460;28;20052;-76
2023/06/01 12:21:09;;;;;;;12.55;11.35;;;28.20;85.50;;;;;;5035167;28;20394;-76
2023/06/01 12:23:36;;;;;;;11.70;10.80;;;28.30;84.20;;;;;;5034557;28;20037;-76
2023/06/01 12:26:03;;;;;;;11.80;10.63;;;28.30;84.70;;;;;;5017570;28;20024;-76
2023/06/01 12:28:33;;;;;;;13.32;12.23;;;28.30;84.60;;;;;;5035065;28;20048;-76
2023/06/01 12:31:13;;;;;;;12.20;11.10;;;28.40;85.10;;;;;;5017334;28;20026;-76
2023/06/01 12:33:40;;;;;;;11.88;10.82;;;28.40;85.20;;;;;;5035232;28;20025;-75
2023/06/01 12:36:07;;;;;;;11.98;11.15;;;28.30;84.90;;;;;;5033861;28;20033;-76
2023/06/01 12:38:51;;;;;;;13.13;11.98;;;28.30;84.40;;;;;;5033700;28;20401;-75
2023/06/01 12:41:18;;;;;;;12.20;11.20;;;28.40;85.30;;;;;;5050353;28;20382;-77
2023/06/01 12:43:45;;;;;;;13.05;12.05;;;28.30;84.70;;;;;;5017528;28;20033;-76
2023/06/01 12:46:22;;;;;;;12.23;11.23;;;28.30;84.10;;;;;;5016844;28;20033;-76